Terminal Aerodrome Forecast
Issued by NWS St Louis, MO

Home | Current Version | Previous Version | Graphics & Text | Print | Product List | Glossary On
Versions: 1 2 3 4 5 6 7 8 9 10 11 12 13 14 15 16 17 18 19 20 21 22 23 24 25 26 27 28 29
000
FTUS43 KLSX 262339
TAFSTL
TAF
KSTL 262339Z 2700/2806 VRB04KT P6SM BKN040
     FM271200 11007KT 4SM SHRA OVC010
     FM271800 23007KT P6SM VCTS OVC015CB
     FM272300 31008KT P6SM BKN030=

USA.gov is the U.S. government's official web portal to all federal, state and local government web resources and services.